Terminal Aerodrome Forecast
Issued by NWS Chicago, IL

Home | Current Version | Previous Version | Text Only | Print | Product List | Glossary Off
Versions: 1 2 3 4 5 6 7 8 9 10 11 12 13 14 15 16 17 18 19 20 21 22 23 24 25 26 27 28 29 30

000
FTUS43 KLOT 290410 CCA
TAFRFD
TAF COR
KRFD 290410Z 2903/2924 04006KT P6SM BKN015
     FM290800 VRB03KT 3SM BR VCSH BKN015 OVC080
     FM291500 06007KT P6SM VCSH BKN025 OVC050
     FM291800 06009KT P6SM -SHRA BKN035=

USA.gov is the U.S. government's official web portal to all federal, state and local government web resources and services.